createdAt,value
2023-04-19T00:00:11.965Z,6.38
2023-04-19T00:02:41.594Z,6.36
2023-04-19T00:05:10.387Z,6.34
2023-04-19T00:07:37.264Z,6.22
2023-04-19T00:10:04.387Z,6.27
2023-04-19T00:12:31.211Z,6.10
2023-04-19T00:14:58.074Z,6.22
2023-04-19T00:17:25.011Z,6.25
2023-04-19T00:19:52.404Z,6.14
2023-04-19T00:22:19.235Z,6.25
2023-04-19T00:24:46.072Z,6.23
2023-04-19T00:27:12.949Z,6.18
2023-04-19T00:29:39.795Z,5.90
2023-04-19T00:32:06.663Z,6.10
2023-04-19T00:34:33.503Z,6.15
2023-04-19T00:37:00.537Z,6.20
2023-04-19T00:39:27.391Z,6.20
2023-04-19T00:41:54.338Z,6.13
2023-04-19T00:44:21.218Z,6.04
2023-04-19T00:46:48.665Z,6.55
2023-04-19T00:49:18.638Z,6.27
2023-04-19T00:51:45.737Z,6.23
2023-04-19T00:54:14.220Z,6.26
2023-04-19T00:56:41.790Z,6.12
2023-04-19T00:59:09.163Z,5.93
2023-04-19T01:01:38.513Z,5.83
2023-04-19T01:04:06.463Z,6.02
2023-04-19T01:06:36.792Z,6.09
2023-04-19T01:09:03.704Z,5.86
2023-04-19T01:11:30.787Z,5.91
2023-04-19T01:13:58.599Z,5.98
2023-04-19T01:16:27.290Z,5.92
2023-04-19T01:18:54.549Z,6.04
2023-04-19T01:21:22.711Z,6.14
2023-04-19T01:23:49.821Z,5.82
2023-04-19T01:26:17.591Z,6.20
2023-04-19T01:28:44.528Z,6.02
2023-04-19T01:31:11.855Z,6.15
2023-04-19T01:33:38.800Z,6.19
2023-04-19T01:36:09.493Z,5.95
2023-04-19T01:38:36.470Z,5.96
2023-04-19T01:41:03.414Z,5.86
2023-04-19T01:43:31.603Z,6.08
2023-04-19T01:45:58.621Z,6.11
2023-04-19T01:48:25.422Z,6.09
2023-04-19T01:50:53.508Z,6.35
2023-04-19T01:53:20.402Z,6.22
2023-04-19T01:55:47.249Z,6.31
2023-04-19T01:58:14.102Z,6.19
2023-04-19T02:00:41.018Z,6.45
2023-04-19T02:03:08.076Z,5.99
2023-04-19T02:05:35.123Z,6.08
2023-04-19T02:08:02.223Z,6.12
2023-04-19T02:10:31.088Z,6.29
2023-04-19T02:12:58.005Z,6.36
2023-04-19T02:15:24.912Z,6.42
2023-04-19T02:17:51.764Z,6.16
2023-04-19T02:20:19.457Z,6.16
2023-04-19T02:22:48.135Z,6.23
2023-04-19T02:25:16.803Z,6.18
2023-04-19T02:27:46.114Z,6.26
2023-04-19T02:30:13.348Z,6.04
2023-04-19T02:32:40.230Z,6.20
2023-04-19T02:35:07.511Z,6.13
2023-04-19T02:37:34.388Z,5.82
2023-04-19T02:40:01.324Z,5.97
2023-04-19T02:42:29.387Z,6.05
2023-04-19T02:44:56.360Z,6.04
2023-04-19T02:47:24.602Z,6.26
2023-04-19T02:49:51.560Z,6.09
2023-04-19T02:52:19.616Z,6.17
2023-04-19T02:54:46.553Z,6.39
2023-04-19T02:57:14.405Z,6.33
2023-04-19T02:59:43.099Z,6.12
2023-04-19T03:02:10.050Z,6.30
2023-04-19T03:04:37.203Z,6.42
2023-04-19T03:07:04.166Z,6.28
2023-04-19T03:09:31.125Z,6.24
2023-04-19T03:11:58.315Z,6.22
2023-04-19T03:14:25.158Z,6.34
2023-04-19T03:16:52.027Z,6.28
2023-04-19T03:19:19.036Z,6.18
2023-04-19T03:21:50.247Z,6.42
2023-04-19T03:24:28.064Z,6.52
2023-04-19T03:26:55.756Z,6.36
2023-04-19T03:29:26.823Z,6.15
2023-04-19T03:31:59.743Z,6.28
2023-04-19T03:34:27.649Z,6.26
2023-04-19T03:36:54.566Z,6.24
2023-04-19T03:39:21.500Z,6.41
2023-04-19T03:41:51.335Z,6.27
2023-04-19T03:44:27.772Z,6.25
2023-04-19T03:46:54.675Z,6.42
2023-04-19T03:49:25.497Z,6.39
2023-04-19T03:52:02.126Z,6.27
2023-04-19T03:54:28.978Z,6.31
2023-04-19T03:56:55.830Z,6.41
2023-04-19T03:59:22.859Z,6.14
2023-04-19T04:01:49.931Z,6.21
2023-04-19T04:04:17.044Z,6.24
2023-04-19T04:06:45.033Z,6.31
2023-04-19T04:09:15.155Z,6.42
2023-04-19T04:11:42.292Z,6.23
2023-04-19T04:14:09.545Z,6.33
2023-04-19T04:16:38.477Z,6.28
2023-04-19T04:19:05.966Z,6.30
2023-04-19T04:21:35.849Z,6.33
2023-04-19T04:24:04.901Z,6.39
2023-04-19T04:27:03.400Z,6.41
2023-04-19T04:29:33.576Z,5.63
2023-04-19T04:32:10.603Z,6.29
2023-04-19T04:34:43.093Z,6.47
2023-04-19T04:37:14.391Z,6.39
2023-04-19T04:39:41.595Z,6.29
2023-04-19T04:42:10.315Z,6.47
2023-04-19T04:44:37.479Z,6.30
2023-04-19T04:47:05.536Z,6.31
2023-04-19T04:49:38.456Z,6.53
2023-04-19T04:52:05.473Z,6.40
2023-04-19T04:54:38.604Z,6.40
2023-04-19T04:57:10.744Z,6.30
2023-04-19T04:59:37.640Z,6.00
2023-04-19T05:02:04.735Z,6.49
2023-04-19T05:04:32.095Z,6.42
2023-04-19T05:06:59.005Z,6.40
2023-04-19T05:09:27.557Z,6.30
2023-04-19T05:11:54.634Z,6.63
2023-04-19T05:14:21.829Z,6.42
2023-04-19T05:16:48.781Z,6.55
2023-04-19T05:19:16.051Z,6.56
2023-04-19T05:21:48.581Z,6.63
2023-04-19T05:24:16.578Z,6.31
2023-04-19T05:26:44.244Z,6.57
2023-04-19T05:29:11.949Z,6.65
2023-04-19T05:31:48.448Z,6.43
2023-04-19T05:34:24.567Z,6.47
2023-04-19T05:36:52.691Z,6.68
2023-04-19T05:39:19.530Z,6.79
2023-04-19T05:41:46.409Z,6.61
2023-04-19T05:44:13.866Z,6.58
2023-04-19T05:46:41.053Z,6.73
2023-04-19T05:49:11.186Z,6.56
2023-04-19T05:51:47.060Z,6.58
2023-04-19T05:54:46.174Z,6.54
2023-04-19T05:57:13.408Z,6.56
2023-04-19T05:59:40.215Z,6.46
2023-04-19T06:02:08.181Z,6.32
2023-04-19T06:04:35.351Z,6.34
2023-04-19T06:07:04.658Z,6.29
2023-04-19T06:09:33.314Z,6.38
2023-04-19T06:12:00.183Z,6.18
2023-04-19T06:14:29.132Z,6.21
2023-04-19T06:16:56.358Z,6.03
2023-04-19T06:19:23.538Z,6.06
2023-04-19T06:21:50.393Z,6.00
2023-04-19T06:24:17.342Z,5.99
2023-04-19T06:26:44.310Z,5.82
2023-04-19T06:29:11.178Z,5.89
2023-04-19T06:31:38.095Z,6.04
2023-04-19T06:34:05.027Z,6.01
2023-04-19T06:36:32.678Z,5.90
2023-04-19T06:38:59.628Z,6.03
2023-04-19T06:41:26.968Z,5.82
2023-04-19T06:43:53.798Z,5.79
2023-04-19T06:46:20.713Z,5.57
2023-04-19T06:48:47.560Z,5.61
2023-04-19T06:51:14.400Z,5.58
2023-04-19T06:53:41.309Z,5.40
2023-04-19T06:56:08.262Z,5.35
2023-04-19T06:58:35.770Z,5.64
2023-04-19T07:01:05.841Z,5.55
2023-04-19T07:03:33.230Z,5.69
2023-04-19T07:06:00.248Z,5.72
2023-04-19T07:08:34.888Z,5.49
2023-04-19T07:11:09.645Z,5.43
2023-04-19T07:13:36.480Z,5.42
2023-04-19T07:16:07.631Z,5.60
2023-04-19T07:18:34.560Z,5.41
2023-04-19T07:21:01.388Z,5.66
2023-04-19T07:23:28.196Z,5.57
2023-04-19T07:25:55.079Z,5.73
2023-04-19T07:28:22.097Z,5.55
2023-04-19T07:30:48.940Z,5.62
2023-04-19T07:33:16.100Z,5.58
2023-04-19T07:35:43.093Z,5.54
2023-04-19T07:38:09.992Z,5.41
2023-04-19T07:40:37.173Z,5.82
2023-04-19T07:43:04.054Z,5.63
2023-04-19T07:45:31.185Z,5.60
2023-04-19T07:47:58.587Z,5.05
2023-04-19T07:50:29.264Z,5.19
2023-04-19T07:52:56.951Z,5.29
2023-04-19T07:55:23.862Z,5.04
2023-04-19T07:57:50.906Z,5.15
2023-04-19T08:00:24.102Z,5.28
2023-04-19T08:02:51.244Z,5.13
2023-04-19T08:05:18.630Z,4.72
2023-04-19T08:07:46.098Z,5.05
2023-04-19T08:10:13.326Z,4.70
2023-04-19T08:12:50.415Z,5.02
2023-04-19T08:16:15.112Z,4.85
2023-04-19T08:18:15.296Z,4.80
2023-04-19T08:20:46.618Z,4.86
2023-04-19T08:23:22.345Z,4.63
2023-04-19T08:25:52.831Z,4.82
2023-04-19T08:28:19.755Z,4.74
2023-04-19T08:30:46.645Z,4.55
2023-04-19T08:33:13.519Z,4.60
2023-04-19T08:35:41.718Z,4.60
2023-04-19T08:38:09.605Z,4.67
2023-04-19T08:40:45.788Z,4.41
2023-04-19T08:43:12.838Z,4.44
2023-04-19T08:45:39.818Z,4.43
2023-04-19T08:48:10.497Z,4.44
2023-04-19T08:50:48.740Z,4.47
2023-04-19T08:53:25.944Z,4.51
2023-04-19T08:56:12.648Z,4.49
2023-04-19T09:01:22.902Z,4.62
2023-04-19T09:04:07.214Z,4.66
2023-04-19T09:06:41.486Z,4.56
2023-04-19T09:09:33.406Z,4.75
2023-04-19T09:12:02.556Z,4.86
2023-04-19T09:14:29.827Z,4.80
2023-04-19T09:17:17.102Z,5.18
2023-04-19T09:19:48.751Z,5.23
2023-04-19T09:22:16.366Z,5.18
2023-04-19T09:27:14.211Z,5.29
2023-04-19T09:29:41.143Z,5.42
2023-04-19T09:32:08.034Z,5.31
2023-04-19T09:34:35.007Z,5.40
2023-04-19T09:37:29.564Z,5.46
2023-04-19T09:40:04.924Z,5.31
2023-04-19T09:45:43.270Z,5.55
2023-04-19T09:48:11.733Z,5.97
2023-04-19T09:51:00.718Z,6.24
2023-04-19T09:53:34.803Z,6.40
2023-04-19T09:56:03.564Z,6.88
2023-04-19T09:58:42.542Z,6.94
2023-04-19T10:01:17.796Z,6.61
2023-04-19T10:03:46.908Z,6.80
2023-04-19T10:06:40.045Z,7.08
2023-04-19T10:09:05.653Z,7.12
2023-04-19T10:11:41.504Z,7.16
2023-04-19T10:14:11.735Z,7.16
2023-04-19T10:16:39.420Z,7.15
2023-04-19T10:19:10.301Z,7.09
2023-04-19T10:21:38.437Z,7.29
2023-04-19T10:24:06.171Z,7.50
2023-04-19T10:27:05.100Z,7.95
2023-04-19T10:30:07.505Z,8.05
2023-04-19T10:32:39.992Z,8.12
2023-04-19T10:35:20.808Z,8.28
2023-04-19T10:38:03.754Z,7.68
2023-04-19T10:40:56.499Z,7.78
2023-04-19T10:43:55.724Z,8.11
2023-04-19T10:46:22.609Z,7.87
2023-04-19T10:48:55.456Z,7.96
2023-04-19T10:51:28.277Z,8.05
2023-04-19T10:54:00.747Z,8.35
2023-04-19T10:56:33.794Z,8.52
2023-04-19T10:59:00.977Z,8.04
2023-04-19T11:01:47.282Z,8.20
2023-04-19T11:04:20.305Z,8.55
2023-04-19T11:06:53.307Z,8.51
2023-04-19T11:09:35.178Z,8.66
2023-04-19T11:12:08.702Z,8.83
2023-04-19T11:14:36.732Z,9.03
2023-04-19T11:17:28.091Z,9.26
2023-04-19T11:20:00.276Z,9.74
2023-04-19T11:22:34.390Z,9.45
2023-04-19T11:25:14.276Z,9.94
2023-04-19T11:27:43.235Z,9.54
2023-04-19T11:30:13.297Z,10.08
2023-04-19T11:32:48.664Z,10.21
2023-04-19T11:35:21.026Z,9.99
2023-04-19T11:37:48.074Z,9.99
2023-04-19T11:40:16.595Z,9.80
2023-04-19T11:42:43.720Z,9.88
2023-04-19T11:45:25.814Z,10.22
2023-04-19T11:47:57.172Z,9.97
2023-04-19T11:50:41.321Z,10.08
2023-04-19T11:53:23.090Z,10.09
2023-04-19T11:56:17.027Z,10.04
2023-04-19T11:58:45.687Z,10.05
2023-04-19T12:01:13.606Z,9.97
2023-04-19T12:03:51.651Z,10.13
2023-04-19T12:06:23.286Z,10.14
2023-04-19T12:08:52.433Z,9.76
2023-04-19T12:11:23.241Z,10.13
2023-04-19T12:14:11.724Z,10.15
2023-04-19T12:16:39.060Z,9.88
2023-04-19T12:19:18.368Z,11.07
2023-04-19T12:21:46.848Z,10.49
2023-04-19T12:24:16.849Z,9.46
2023-04-19T12:26:57.236Z,9.17
2023-04-19T12:29:24.521Z,9.62
2023-04-19T12:31:51.817Z,10.04
2023-04-19T12:34:19.180Z,9.34
2023-04-19T12:36:46.012Z,9.17
2023-04-19T12:39:13.914Z,10.24
2023-04-19T12:41:40.925Z,10.58
2023-04-19T12:44:07.805Z,10.65
2023-04-19T12:46:34.869Z,11.03
2023-04-19T12:49:02.001Z,10.89
2023-04-19T12:51:28.847Z,9.82
2023-04-19T12:53:55.702Z,9.90
2023-04-19T12:56:22.629Z,10.74
2023-04-19T12:58:49.455Z,11.36
2023-04-19T13:01:16.461Z,10.86
2023-04-19T13:03:43.617Z,10.06
2023-04-19T13:06:14.892Z,9.47
2023-04-19T13:08:46.607Z,9.12
2023-04-19T13:11:15.315Z,10.24
2023-04-19T13:13:42.187Z,10.75
2023-04-19T13:16:09.173Z,10.43
2023-04-19T13:18:36.234Z,9.67
2023-04-19T13:21:03.165Z,9.04
2023-04-19T13:23:30.495Z,10.77
2023-04-19T13:25:57.364Z,9.43
2023-04-19T13:28:24.212Z,9.11
2023-04-19T13:30:51.240Z,9.68
2023-04-19T13:33:18.226Z,10.33
2023-04-19T13:35:45.347Z,9.64
2023-04-19T13:38:12.222Z,8.85
2023-04-19T13:40:39.178Z,9.21
2023-04-19T13:43:06.068Z,8.82
2023-04-19T13:45:32.939Z,9.31
2023-04-19T13:47:59.878Z,9.73
2023-04-19T13:50:26.814Z,9.02
2023-04-19T13:52:53.843Z,9.83
2023-04-19T13:55:20.854Z,9.43
2023-04-19T13:57:47.990Z,9.02
2023-04-19T14:00:15.393Z,9.06
2023-04-19T14:02:42.587Z,8.59
2023-04-19T14:05:10.090Z,8.32
2023-04-19T14:07:42.634Z,8.50
2023-04-19T14:10:10.388Z,8.75
2023-04-19T14:12:37.375Z,8.24
2023-04-19T14:15:04.651Z,8.48
2023-04-19T14:17:31.685Z,8.72
2023-04-19T14:19:58.601Z,8.49
2023-04-19T14:22:25.470Z,8.30
2023-04-19T14:24:52.328Z,8.72
2023-04-19T14:27:19.533Z,10.29
2023-04-19T14:29:46.408Z,10.59
2023-04-19T14:32:24.379Z,10.94
2023-04-19T14:34:54.170Z,9.77
2023-04-19T14:37:21.847Z,8.75
2023-04-19T14:39:48.742Z,9.59
2023-04-19T14:42:15.636Z,8.97
2023-04-19T14:44:42.520Z,8.63
2023-04-19T14:47:09.436Z,8.97
2023-04-19T14:49:36.304Z,9.52
2023-04-19T14:52:04.161Z,9.57
2023-04-19T14:54:31.056Z,9.99
2023-04-19T14:56:57.959Z,9.87
2023-04-19T14:59:24.883Z,9.68
2023-04-19T15:01:52.004Z,10.72
2023-04-19T15:04:19.172Z,10.51
2023-04-19T15:06:46.406Z,9.89
2023-04-19T15:09:13.388Z,9.34
2023-04-19T15:11:40.299Z,9.31
2023-04-19T15:14:07.360Z,9.91
2023-04-19T15:16:34.370Z,9.94
2023-04-19T15:19:02.589Z,9.93
2023-04-19T15:21:29.466Z,9.77
2023-04-19T15:23:56.404Z,9.80
2023-04-19T15:26:24.536Z,10.02
2023-04-19T15:28:51.826Z,10.21
2023-04-19T15:31:18.789Z,10.29
2023-04-19T15:33:46.587Z,10.14
2023-04-19T15:36:13.587Z,10.35
2023-04-19T15:38:40.975Z,9.98
2023-04-19T15:41:09.489Z,10.02
2023-04-19T15:43:36.492Z,10.56
2023-04-19T15:46:03.387Z,10.05
2023-04-19T15:48:30.454Z,10.02
2023-04-19T15:50:57.288Z,10.10
2023-04-19T15:53:24.214Z,9.62
2023-04-19T15:55:51.136Z,9.64
2023-04-19T15:58:18.050Z,9.07
2023-04-19T16:00:45.178Z,8.95
2023-04-19T16:03:12.927Z,9.20
2023-04-19T16:05:40.361Z,9.22
2023-04-19T16:08:12.039Z,8.89
2023-04-19T16:10:39.668Z,8.67
2023-04-19T16:13:06.723Z,8.59
2023-04-19T16:15:33.628Z,8.65
2023-04-19T16:18:00.508Z,8.47
2023-04-19T16:20:27.397Z,8.18
2023-04-19T16:22:54.302Z,7.86
2023-04-19T16:25:21.410Z,7.65
2023-04-19T16:27:48.445Z,7.65
2023-04-19T16:30:16.733Z,7.60
2023-04-19T16:32:44.001Z,7.71
2023-04-19T16:35:13.795Z,7.74
2023-04-19T16:37:41.214Z,7.62
2023-04-19T16:40:10.343Z,7.64
2023-04-19T16:42:38.867Z,7.80
2023-04-19T16:45:07.576Z,7.71
2023-04-19T16:47:35.596Z,7.31
2023-04-19T16:50:03.210Z,7.61
2023-04-19T16:52:32.134Z,7.16
2023-04-19T16:55:00.207Z,7.45
2023-04-19T16:57:27.348Z,7.56
2023-04-19T16:59:54.243Z,7.43
2023-04-19T17:02:21.477Z,7.20
2023-04-19T17:04:48.590Z,7.04
2023-04-19T17:07:15.526Z,7.06
2023-04-19T17:09:42.396Z,6.97
2023-04-19T17:12:09.252Z,7.03
2023-04-19T17:14:36.165Z,7.01
2023-04-19T17:17:03.172Z,6.84
2023-04-19T17:19:30.059Z,7.00
2023-04-19T17:21:58.807Z,7.14
2023-04-19T17:24:25.688Z,6.73
2023-04-19T17:26:52.749Z,6.25
2023-04-19T17:29:19.738Z,6.19
2023-04-19T17:31:46.746Z,6.32
2023-04-19T17:34:13.683Z,6.08
2023-04-19T17:36:42.336Z,5.75
2023-04-19T17:39:09.672Z,5.92
2023-04-19T17:41:36.556Z,5.54
2023-04-19T17:44:03.466Z,5.62
2023-04-19T17:46:30.548Z,5.79
2023-04-19T17:48:57.469Z,5.55
2023-04-19T17:51:24.543Z,5.40
2023-04-19T17:53:51.800Z,5.37
2023-04-19T17:56:19.158Z,5.48
2023-04-19T17:58:46.082Z,5.57
2023-04-19T18:01:15.400Z,5.44
2023-04-19T18:03:44.474Z,5.47
2023-04-19T18:06:16.343Z,5.19
2023-04-19T18:08:46.144Z,5.55
2023-04-19T18:11:13.254Z,5.46
2023-04-19T18:13:42.673Z,5.49
2023-04-19T18:16:11.382Z,5.52
2023-04-19T18:18:39.016Z,5.32
2023-04-19T18:21:06.885Z,5.45
2023-04-19T18:23:33.730Z,5.35
2023-04-19T18:26:02.846Z,5.49
2023-04-19T18:28:30.178Z,5.48
2023-04-19T18:30:57.579Z,5.62
2023-04-19T18:33:24.592Z,5.63
2023-04-19T18:35:53.386Z,5.53
2023-04-19T18:38:20.949Z,5.53
2023-04-19T18:40:47.940Z,5.10
2023-04-19T18:43:14.820Z,5.34
2023-04-19T18:45:41.811Z,5.41
2023-04-19T18:48:08.862Z,5.30
2023-04-19T18:50:37.224Z,5.09
2023-04-19T18:53:04.254Z,5.48
2023-04-19T18:55:31.337Z,5.32
2023-04-19T18:58:01.071Z,5.49
2023-04-19T19:00:28.436Z,5.14
2023-04-19T19:02:57.085Z,5.23
2023-04-19T19:05:24.379Z,5.07
2023-04-19T19:07:51.522Z,5.13
2023-04-19T19:10:21.836Z,5.02
2023-04-19T19:12:50.195Z,4.78
2023-04-19T19:15:18.026Z,4.78
2023-04-19T19:17:49.475Z,4.33
2023-04-19T19:20:18.003Z,4.62
2023-04-19T19:22:45.668Z,4.43
2023-04-19T19:25:13.325Z,4.14
2023-04-19T19:27:40.239Z,4.30
2023-04-19T19:30:08.092Z,4.47
2023-04-19T19:32:35.365Z,4.44
2023-04-19T19:35:06.418Z,4.12
2023-04-19T19:37:38.099Z,4.20
2023-04-19T19:40:07.423Z,3.80
2023-04-19T19:42:35.374Z,4.06
2023-04-19T19:45:03.492Z,4.17
2023-04-19T19:47:31.611Z,4.01
2023-04-19T19:52:28.891Z,3.79
2023-04-19T19:54:56.240Z,4.08
2023-04-19T19:59:56.216Z,4.29
2023-04-19T20:02:24.585Z,4.17
2023-04-19T20:04:51.828Z,3.75
2023-04-19T20:07:29.424Z,3.80
2023-04-19T20:10:12.065Z,3.82
2023-04-19T20:12:41.947Z,3.89
2023-04-19T20:15:11.923Z,4.10
2023-04-19T20:17:40.680Z,4.08
2023-04-19T20:20:09.215Z,4.24
2023-04-19T20:22:36.095Z,4.12
2023-04-19T20:25:02.955Z,4.19
2023-04-19T20:27:29.875Z,4.13
2023-04-19T20:29:57.378Z,4.28
2023-04-19T20:32:24.766Z,4.31
2023-04-19T20:34:52.208Z,4.21
2023-04-19T20:37:19.257Z,4.24
2023-04-19T20:39:46.332Z,3.88
2023-04-19T20:42:13.225Z,4.23
2023-04-19T20:44:40.231Z,4.24
2023-04-19T20:47:09.185Z,4.25
2023-04-19T20:49:36.278Z,4.32
2023-04-19T20:52:03.171Z,4.11
2023-04-19T20:54:30.368Z,3.63
2023-04-19T20:57:02.042Z,3.97
2023-04-19T20:59:28.899Z,4.12
2023-04-19T21:01:55.855Z,4.06
2023-04-19T21:04:22.939Z,3.94
2023-04-19T21:06:50.088Z,4.25
2023-04-19T21:09:17.048Z,4.19
2023-04-19T21:11:43.971Z,3.98
2023-04-19T21:14:10.883Z,4.12
2023-04-19T21:16:37.741Z,3.88
2023-04-19T21:19:04.579Z,4.04
2023-04-19T21:21:32.519Z,4.07
2023-04-19T21:23:59.651Z,4.34
2023-04-19T21:26:26.591Z,4.14
2023-04-19T21:28:53.404Z,4.00
2023-04-19T21:31:20.295Z,4.13
2023-04-19T21:33:47.169Z,4.04
2023-04-19T21:36:13.956Z,4.11
2023-04-19T21:38:40.911Z,3.95
2023-04-19T21:41:08.438Z,3.26
2023-04-19T21:43:35.895Z,3.24
2023-04-19T21:46:04.937Z,3.31
2023-04-19T21:48:32.459Z,3.36
2023-04-19T21:51:00.660Z,3.36
2023-04-19T21:53:27.844Z,3.55
2023-04-19T21:55:54.713Z,3.51
2023-04-19T21:58:21.552Z,3.52
2023-04-19T22:00:48.823Z,3.70
2023-04-19T22:03:16.008Z,3.71
2023-04-19T22:05:43.395Z,3.46
2023-04-19T22:08:10.700Z,3.37
2023-04-19T22:10:37.971Z,2.84
2023-04-19T22:13:05.092Z,3.04
2023-04-19T22:15:32.114Z,3.23
2023-04-19T22:17:59.007Z,3.27
2023-04-19T22:20:29.305Z,3.05
2023-04-19T22:22:56.118Z,2.93
2023-04-19T22:25:22.964Z,2.99
2023-04-19T22:27:49.882Z,2.95
2023-04-19T22:30:16.727Z,2.91
2023-04-19T22:32:43.693Z,2.86
2023-04-19T22:35:10.791Z,2.47
2023-04-19T22:37:37.633Z,2.30
2023-04-19T22:40:06.949Z,2.32
2023-04-19T22:42:33.895Z,2.49
2023-04-19T22:45:00.824Z,2.35
2023-04-19T22:47:27.728Z,2.14
2023-04-19T22:49:54.854Z,2.23
2023-04-19T22:52:21.683Z,2.02
2023-04-19T22:54:48.498Z,2.13
2023-04-19T22:57:15.426Z,2.12
2023-04-19T22:59:42.310Z,1.99
2023-04-19T23:02:09.203Z,1.56
2023-04-19T23:04:36.180Z,1.53
2023-04-19T23:07:04.276Z,2.01
2023-04-19T23:09:31.174Z,1.73
2023-04-19T23:11:58.872Z,1.76
2023-04-19T23:14:25.792Z,1.63
2023-04-19T23:16:54.979Z,1.83
2023-04-19T23:19:22.980Z,1.74
2023-04-19T23:21:50.580Z,1.49
2023-04-19T23:24:18.028Z,1.52
2023-04-19T23:26:44.900Z,1.55
2023-04-19T23:29:11.692Z,1.55
2023-04-19T23:31:38.664Z,1.27
2023-04-19T23:34:05.723Z,1.45
2023-04-19T23:36:32.949Z,1.41
2023-04-19T23:38:59.844Z,1.50
2023-04-19T23:41:27.033Z,1.37
2023-04-19T23:43:53.899Z,1.59
2023-04-19T23:46:20.929Z,1.49
2023-04-19T23:48:47.866Z,1.80
2023-04-19T23:51:14.697Z,1.73
2023-04-19T23:53:41.531Z,1.59
2023-04-19T23:56:08.406Z,1.57
2023-04-19T23:58:35.266Z,1.44
